Share

Ashland, MT

Wiley (KMLS) Elev 2628 ft | 46.43 °N, 105.88 °W | Change Station

Current weather conditions updated 23 minutes ago

Clear
Clear
45 °F
Feels Like 40 °F
N
9
Wind Variable Wind from WNW
Sunrise 6:10 AM
Sunset 7:57 PM
Moon Waning Gibbous

Tomorrow is forecast to be nearly the same temperature as today.

Pressure 30.15 in
Visibility 10.0 miles
Clouds Clear
Windchill 40 °F
Dew Point 23 °F
Humidity 42%
Rainfall 0.00 in
Snow Depth Not available.
UV 0 out of 16
Pollen 10.60 out of 12
Air Quality Not available.
Flu Activity Sporadic
METAR KMLS 210453Z AUTO 29008KT 10SM CLR 07/M05 A3014 RMK AO2 SLP208 T00721050

More Conditions Fewer Conditions

Pressure 30.15 in
Visibility 10.0 miles
Clouds Clear
Windchill 40 °F
Dew Point 23 °F
Humidity 42%
Rainfall 0.00 in
Snow Depth Not available.
UV 0 out of 16
Pollen 10.60 out of 12
Air Quality Not available.
Flu Activity Sporadic
METAR KMLS 210453Z AUTO 29008KT 10SM CLR 07/M05 A3014 RMK AO2 SLP208 T00721050

More Conditions Fewer Conditions

10-Day Weather Forecast

Almanac

Astronomy

Apr. 20, 2014 Rise Set
Actual Time 6:10 AM MDT 7:57 PM MDT
Civil Twilight 5:39 AM MDT 8:29 PM MDT
Nautical Twilight 5:00 AM MDT 9:08 PM MDT
Astronomical Twilight 4:19 AM MDT 9:50 PM MDT
Moon 12:46 AM MDT (4/20) 10:28 AM MDT (4/20)
Length of Visible Light 14h 50m
Length of Day
13h 47m
Tomorrow will be 2m 59s longer.
Waning Gibbous, 63% of the Moon is Illuminated
Apr 21
Waning Gibbous
Apr 22
Last Quarter
Apr 29
New
May 6
First Quarter
May 14
Full

Yesterday's Extremes

State Highs State Lows

Community

  • Snowy Robin
    Snowy Robin
  • Sun Pillar and Geese
    Sun Pillar and Geese
  • Showers on the Way
    Showers on the Way
  • Easter Morning Fog
    Easter Morning Fog
  • Easter Dance
    Easter Dance

WunderPhotos

Upload Photos

1,703,561 photos uploaded!

WunderBlogs® & News

Nearby

Snow Depth

Station Depth Elevation
Cole Creek 73 in 7850 ft
Burnt Mountain 23 in 5880 ft
Crystal Lake 55 in 6050 ft
White Mill 93 in 8700 ft
Northeast Entrance 34 in 7350 ft

Coastal Water Temperatures

Place Temperature
No Stations Reporting

Earthquake Activity

City Distance Mag. Time & Date
No recent earthquake activity has been reported nearby.
Minimum magnitude displayed is 2.5.

Nearby Weather Stations

Station Location Temp. Windchill Dew Point Humidity Wind Precip. Elev Updated Type
RAWS ASHLAND PORTABLE MT, Birney, MT 51 °F - 16 °F 25% North  at  6 mph 0.00 in / hr 3934 ft 8:54 PM MDT MADIS
RAWS BADGER PEAK MT, Lame Deer, MT 49 °F 46 °F 14 °F 24% NNW  at  8 mph 0.00 in / hr 4382 ft 10:01 PM MDT MADIS

Show More Stations Show Fewer Stations

What do you think?

We're not finished. Please let us know what you like, what you don't like, and what you are still missing.